createdAt,value
2023-05-10T00:01:19.653Z,4.85
2023-05-10T00:03:46.857Z,4.97
2023-05-10T00:06:14.122Z,5.03
2023-05-10T00:08:41.281Z,4.45
2023-05-10T00:11:08.635Z,4.63
2023-05-10T00:13:35.786Z,5.20
2023-05-10T00:16:03.070Z,5.00
2023-05-10T00:18:30.323Z,4.90
2023-05-10T00:20:57.520Z,5.05
2023-05-10T00:23:24.668Z,4.55
2023-05-10T00:25:52.110Z,4.55
2023-05-10T00:28:19.308Z,5.00
2023-05-10T00:30:46.464Z,4.85
2023-05-10T00:33:13.685Z,5.03
2023-05-10T00:35:41.269Z,5.25
2023-05-10T00:38:08.455Z,5.30
2023-05-10T00:40:38.090Z,4.82
2023-05-10T00:43:06.026Z,4.80
2023-05-10T00:45:37.259Z,5.28
2023-05-10T00:48:05.480Z,4.60
2023-05-10T00:50:34.554Z,4.72
2023-05-10T00:53:03.168Z,4.85
2023-05-10T00:55:31.655Z,5.03
2023-05-10T00:57:58.994Z,4.85
2023-05-10T01:00:26.687Z,4.85
2023-05-10T01:02:56.913Z,4.85
2023-05-10T01:05:24.133Z,5.05
2023-05-10T01:07:51.934Z,4.50
2023-05-10T01:10:19.475Z,4.80
2023-05-10T01:12:48.659Z,5.07
2023-05-10T01:15:18.988Z,4.90
2023-05-10T01:17:49.804Z,5.00
2023-05-10T01:20:18.529Z,4.70
2023-05-10T01:23:42.623Z,5.40
2023-05-10T01:26:40.511Z,5.13
2023-05-10T01:29:07.599Z,4.82
2023-05-10T01:32:17.133Z,5.10
2023-05-10T01:35:31.302Z,5.25
2023-05-10T01:38:28.370Z,5.18
2023-05-10T01:41:18.176Z,5.13
2023-05-10T01:44:21.467Z,4.97
2023-05-10T01:47:21.204Z,5.15
2023-05-10T01:49:56.200Z,4.60
2023-05-10T01:52:42.948Z,4.90
2023-05-10T01:55:15.494Z,5.07
2023-05-10T01:57:45.824Z,5.25
2023-05-10T02:00:16.143Z,5.40
2023-05-10T02:02:48.751Z,5.15
2023-05-10T02:05:18.765Z,5.00
2023-05-10T02:07:47.160Z,5.07
2023-05-10T02:10:16.758Z,5.20
2023-05-10T02:12:48.440Z,5.05
2023-05-10T02:15:22.997Z,5.38
2023-05-10T02:17:51.084Z,5.53
2023-05-10T02:20:20.370Z,5.43
2023-05-10T02:22:52.613Z,5.50
2023-05-10T02:25:23.498Z,5.43
2023-05-10T02:27:55.212Z,5.47
2023-05-10T02:30:24.869Z,5.38
2023-05-10T02:32:53.279Z,5.32
2023-05-10T02:35:21.942Z,5.25
2023-05-10T02:37:50.018Z,5.53
2023-05-10T02:40:19.210Z,5.50
2023-05-10T02:42:51.480Z,5.57
2023-05-10T02:45:24.503Z,5.50
2023-05-10T02:47:51.970Z,6.22
2023-05-10T02:50:20.890Z,5.28
2023-05-10T02:52:55.137Z,5.28
2023-05-10T02:55:33.309Z,5.35
2023-05-10T02:58:03.214Z,5.20
2023-05-10T03:00:30.725Z,5.53
2023-05-10T03:02:58.209Z,5.22
2023-05-10T03:05:25.787Z,5.55
2023-05-10T03:07:54.409Z,5.28
2023-05-10T03:10:29.451Z,5.40
2023-05-10T03:13:33.710Z,5.63
2023-05-10T03:16:10.980Z,5.45
2023-05-10T03:19:28.514Z,5.57
2023-05-10T03:22:04.073Z,5.50
2023-05-10T03:24:34.678Z,5.93
2023-05-10T03:27:05.152Z,6.07
2023-05-10T03:29:33.994Z,5.88
2023-05-10T03:32:01.739Z,5.72
2023-05-10T03:34:32.322Z,5.82
2023-05-10T03:36:59.629Z,5.70
2023-05-10T03:39:26.898Z,5.47
2023-05-10T03:41:54.097Z,5.97
2023-05-10T03:44:21.385Z,5.60
2023-05-10T03:46:48.916Z,5.38
2023-05-10T03:49:16.420Z,5.72
2023-05-10T03:51:43.602Z,5.63
2023-05-10T03:54:10.773Z,5.85
2023-05-10T03:56:37.903Z,5.30
2023-05-10T03:59:08.303Z,5.88
2023-05-10T04:01:36.148Z,5.60
2023-05-10T04:04:03.582Z,5.55
2023-05-10T04:06:30.802Z,5.57
2023-05-10T04:09:00.950Z,6.03
2023-05-10T04:11:28.874Z,5.75
2023-05-10T04:13:56.026Z,6.10
2023-05-10T04:16:23.236Z,5.95
2023-05-10T04:18:50.446Z,6.00
2023-05-10T04:21:17.647Z,5.80
2023-05-10T04:23:44.896Z,5.90
2023-05-10T04:26:12.292Z,5.88
2023-05-10T04:28:39.738Z,5.80
2023-05-10T04:31:10.385Z,5.88
2023-05-10T04:33:38.115Z,5.55
2023-05-10T04:36:06.051Z,6.15
2023-05-10T04:38:33.368Z,6.20
2023-05-10T04:41:08.714Z,5.60
2023-05-10T04:43:37.132Z,5.85
2023-05-10T04:46:06.075Z,5.80
2023-05-10T04:48:33.290Z,5.55
2023-05-10T04:51:00.614Z,6.13
2023-05-10T04:53:27.759Z,6.30
2023-05-10T04:55:54.929Z,6.45
2023-05-10T04:58:22.338Z,6.35
2023-05-10T05:00:49.598Z,6.50
2023-05-10T05:03:16.864Z,6.13
2023-05-10T05:05:45.774Z,6.65
2023-05-10T05:08:13.713Z,6.00
2023-05-10T05:10:41.197Z,6.10
2023-05-10T05:13:08.378Z,6.00
2023-05-10T05:15:35.590Z,6.43
2023-05-10T05:18:02.807Z,6.28
2023-05-10T05:20:36.327Z,6.05
2023-05-10T05:23:03.510Z,5.55
2023-05-10T05:25:30.790Z,5.97
2023-05-10T05:27:58.001Z,5.68
2023-05-10T05:30:25.244Z,5.63
2023-05-10T05:32:52.442Z,6.13
2023-05-10T05:35:19.720Z,6.32
2023-05-10T05:37:46.895Z,6.35
2023-05-10T05:40:15.033Z,5.97
2023-05-10T05:42:42.385Z,6.10
2023-05-10T05:45:13.860Z,7.10
2023-05-10T05:47:41.480Z,6.60
2023-05-10T05:50:09.294Z,7.10
2023-05-10T05:52:37.002Z,7.20
2023-05-10T05:55:04.636Z,6.20
2023-05-10T05:57:32.047Z,6.18
2023-05-10T05:59:59.290Z,5.80
2023-05-10T06:02:26.723Z,6.63
2023-05-10T06:04:53.925Z,6.63
2023-05-10T06:07:21.290Z,6.45
2023-05-10T06:09:48.498Z,6.35
2023-05-10T06:12:15.672Z,6.00
2023-05-10T06:14:42.873Z,6.05
2023-05-10T06:17:10.115Z,6.07
2023-05-10T06:19:37.759Z,6.15
2023-05-10T06:22:05.035Z,6.03
2023-05-10T06:24:32.227Z,7.22
2023-05-10T06:27:01.116Z,6.85
2023-05-10T06:29:28.356Z,7.45
2023-05-10T06:31:55.701Z,6.65
2023-05-10T06:34:23.039Z,6.40
2023-05-10T06:36:52.920Z,5.95
2023-05-10T06:39:20.077Z,6.70
2023-05-10T06:41:47.271Z,6.13
2023-05-10T06:44:14.482Z,6.00
2023-05-10T06:46:42.692Z,6.85
2023-05-10T06:49:10.159Z,6.00
2023-05-10T06:51:37.345Z,6.30
2023-05-10T06:54:04.521Z,7.45
2023-05-10T06:56:31.681Z,7.03
2023-05-10T06:58:58.934Z,6.13
2023-05-10T07:01:26.188Z,6.28
2023-05-10T07:03:53.467Z,5.93
2023-05-10T07:06:32.398Z,6.10
2023-05-10T07:09:01.549Z,5.68
2023-05-10T07:11:28.790Z,6.03
2023-05-10T07:13:56.022Z,5.85
2023-05-10T07:16:23.358Z,6.15
2023-05-10T07:18:51.595Z,6.00
2023-05-10T07:21:18.828Z,6.03
2023-05-10T07:23:46.117Z,6.35
2023-05-10T07:26:13.254Z,6.10
2023-05-10T07:28:40.480Z,6.30
2023-05-10T07:31:07.704Z,6.25
2023-05-10T07:33:34.849Z,7.20
2023-05-10T07:36:01.976Z,6.50
2023-05-10T07:38:29.096Z,6.97
2023-05-10T07:40:56.236Z,6.70
2023-05-10T07:43:23.561Z,6.95
2023-05-10T07:45:50.760Z,7.38
2023-05-10T07:48:17.916Z,7.65
2023-05-10T07:50:45.049Z,7.25
2023-05-10T07:53:12.199Z,7.80
2023-05-10T07:55:39.491Z,7.57
2023-05-10T07:58:07.150Z,7.55
2023-05-10T08:00:35.624Z,7.90
2023-05-10T08:03:02.964Z,8.30
2023-05-10T08:05:30.498Z,8.10
2023-05-10T08:07:57.676Z,8.85
2023-05-10T08:10:25.727Z,8.95
2023-05-10T08:12:52.870Z,8.70
2023-05-10T08:15:20.120Z,8.85
2023-05-10T08:17:47.364Z,8.93
2023-05-10T08:20:17.628Z,13.13
2023-05-10T08:22:44.859Z,9.63
2023-05-10T08:25:12.297Z,9.57
2023-05-10T08:27:39.469Z,9.68
2023-05-10T08:30:07.699Z,9.80
2023-05-10T08:32:35.911Z,10.52
2023-05-10T08:35:03.598Z,9.80
2023-05-10T08:37:31.303Z,11.07
2023-05-10T08:39:58.485Z,10.30
2023-05-10T08:42:31.172Z,10.35
2023-05-10T08:45:00.212Z,10.98
2023-05-10T08:47:28.867Z,11.13
2023-05-10T08:49:58.041Z,11.18
2023-05-10T08:52:28.374Z,9.55
2023-05-10T08:54:55.951Z,10.30
2023-05-10T08:57:23.581Z,9.70
2023-05-10T08:59:50.841Z,10.80
2023-05-10T09:02:20.543Z,11.43
2023-05-10T09:04:47.878Z,11.32
2023-05-10T09:07:15.328Z,12.40
2023-05-10T09:09:42.926Z,11.57
2023-05-10T09:12:12.477Z,11.15
2023-05-10T09:14:40.452Z,12.20
2023-05-10T09:17:07.916Z,12.38
2023-05-10T09:19:35.161Z,12.68
2023-05-10T09:22:03.353Z,12.77
2023-05-10T09:24:31.538Z,12.68
2023-05-10T09:27:01.564Z,13.75
2023-05-10T09:29:43.642Z,13.75
2023-05-10T09:32:10.803Z,13.90
2023-05-10T09:34:40.924Z,13.93
2023-05-10T09:37:09.156Z,16.27
2023-05-10T09:39:38.600Z,15.90
2023-05-10T09:42:08.804Z,14.60
2023-05-10T09:44:37.041Z,14.85
2023-05-10T09:47:04.758Z,16.70
2023-05-10T09:49:31.953Z,15.65
2023-05-10T09:52:08.545Z,16.08
2023-05-10T09:54:36.179Z,16.30
2023-05-10T09:57:03.448Z,16.05
2023-05-10T09:59:31.276Z,14.82
2023-05-10T10:02:00.615Z,17.02
2023-05-10T10:04:28.948Z,16.13
2023-05-10T10:07:04.788Z,16.88
2023-05-10T10:09:33.479Z,16.95
2023-05-10T10:12:03.040Z,15.98
2023-05-10T10:14:30.908Z,17.55
2023-05-10T10:17:06.640Z,17.92
2023-05-10T10:19:38.822Z,17.67
2023-05-10T10:22:06.991Z,16.70
2023-05-10T10:24:34.742Z,18.02
2023-05-10T10:27:20.517Z,18.48
2023-05-10T10:30:07.556Z,18.33
2023-05-10T10:32:53.346Z,17.50
2023-05-10T10:35:20.859Z,17.27
2023-05-10T10:37:51.658Z,17.25
2023-05-10T10:40:26.825Z,17.50
2023-05-10T10:42:55.173Z,15.95
2023-05-10T10:45:23.988Z,17.80
2023-05-10T10:48:24.082Z,18.33
2023-05-10T10:50:58.992Z,15.77
2023-05-10T10:53:30.012Z,13.75
2023-05-10T10:56:11.234Z,10.85
2023-05-10T10:58:40.450Z,11.10
2023-05-10T11:01:37.694Z,9.27
2023-05-10T11:04:05.041Z,9.90
2023-05-10T11:06:36.768Z,9.57
2023-05-10T11:09:13.279Z,9.10
2023-05-10T11:11:53.471Z,8.32
2023-05-10T11:14:23.482Z,9.40
2023-05-10T11:16:51.571Z,7.85
2023-05-10T11:19:20.886Z,5.80
2023-05-10T11:22:11.953Z,5.30
2023-05-10T11:24:39.127Z,5.18
2023-05-10T11:27:09.365Z,5.40
2023-05-10T11:29:36.501Z,3.40
2023-05-10T11:32:09.059Z,2.08
2023-05-10T11:34:36.205Z,2.22
2023-05-10T11:37:03.458Z,2.30
2023-05-10T11:39:32.892Z,2.20
2023-05-10T11:42:01.056Z,1.50
2023-05-10T11:44:33.447Z,1.50
2023-05-10T11:47:02.655Z,1.50
2023-05-10T11:49:29.963Z,1.70
2023-05-10T11:52:11.944Z,1.95
2023-05-10T11:54:45.517Z,1.90
2023-05-10T11:57:12.712Z,1.60
2023-05-10T11:59:41.730Z,1.65
2023-05-10T12:02:11.382Z,1.70
2023-05-10T12:04:39.163Z,2.28
2023-05-10T12:07:06.729Z,1.88
2023-05-10T12:09:43.346Z,1.95
2023-05-10T12:12:11.640Z,2.30
2023-05-10T12:14:38.824Z,2.30
2023-05-10T12:17:05.998Z,2.42
2023-05-10T12:19:40.119Z,2.92
2023-05-10T12:22:07.461Z,3.42
2023-05-10T12:24:37.154Z,2.80
2023-05-10T12:27:09.614Z,3.00
2023-05-10T12:29:37.435Z,3.38
2023-05-10T12:32:04.879Z,3.10
2023-05-10T12:34:36.976Z,2.90
2023-05-10T12:37:05.011Z,3.03
2023-05-10T12:39:44.019Z,2.70
2023-05-10T12:42:11.924Z,3.03
2023-05-10T12:44:40.739Z,2.65
2023-05-10T12:47:08.361Z,2.38
2023-05-10T12:49:35.603Z,2.30
2023-05-10T12:52:02.854Z,2.60
2023-05-10T12:54:30.007Z,3.03
2023-05-10T12:56:57.158Z,3.22
2023-05-10T12:59:24.330Z,2.95
2023-05-10T13:01:51.457Z,2.60
2023-05-10T13:04:18.616Z,2.38
2023-05-10T13:06:45.817Z,2.80
2023-05-10T13:09:12.993Z,3.42
2023-05-10T13:11:40.479Z,2.92
2023-05-10T13:14:07.936Z,2.95
2023-05-10T13:16:35.230Z,3.60
2023-05-10T13:19:02.441Z,3.30
2023-05-10T13:21:29.665Z,3.10
2023-05-10T13:23:56.834Z,3.83
2023-05-10T13:26:24.020Z,3.40
2023-05-10T13:28:52.509Z,3.30
2023-05-10T13:31:19.977Z,3.17
2023-05-10T13:33:47.156Z,3.17
2023-05-10T13:36:14.302Z,2.95
2023-05-10T13:38:41.468Z,2.67
2023-05-10T13:41:08.677Z,2.90
2023-05-10T13:43:36.968Z,3.22
2023-05-10T13:46:04.254Z,3.85
2023-05-10T13:48:31.469Z,4.43
2023-05-10T13:50:58.692Z,3.25
2023-05-10T13:53:25.887Z,3.50
2023-05-10T13:55:53.071Z,3.60
2023-05-10T13:58:20.255Z,3.05
2023-05-10T14:00:47.425Z,3.55
2023-05-10T14:03:14.639Z,3.28
2023-05-10T14:05:41.911Z,3.25
2023-05-10T14:08:10.346Z,2.90
2023-05-10T14:10:37.877Z,3.90
2023-05-10T14:13:05.070Z,3.72
2023-05-10T14:15:32.265Z,4.25
2023-05-10T14:17:59.495Z,3.75
2023-05-10T14:20:27.134Z,4.10
2023-05-10T14:22:54.301Z,4.22
2023-05-10T14:25:21.722Z,4.80
2023-05-10T14:27:48.926Z,4.50
2023-05-10T14:30:16.129Z,4.40
2023-05-10T14:32:43.427Z,4.35
2023-05-10T14:35:13.107Z,4.20
2023-05-10T14:37:40.799Z,4.88
2023-05-10T14:40:10.254Z,4.78
2023-05-10T14:42:37.557Z,4.68
2023-05-10T14:45:05.686Z,4.75
2023-05-10T14:47:32.909Z,5.25
2023-05-10T14:50:00.169Z,5.20
2023-05-10T14:52:27.798Z,4.85
2023-05-10T14:54:54.972Z,5.28
2023-05-10T14:57:22.146Z,4.90
2023-05-10T14:59:49.310Z,5.18
2023-05-10T15:02:17.201Z,5.20
2023-05-10T15:04:44.845Z,5.20
2023-05-10T15:07:15.309Z,5.32
2023-05-10T15:09:42.604Z,6.55
2023-05-10T15:12:09.791Z,5.90
2023-05-10T15:14:37.625Z,5.55
2023-05-10T15:17:07.950Z,5.47
2023-05-10T15:19:35.194Z,5.28
2023-05-10T15:22:03.195Z,5.93
2023-05-10T15:24:31.677Z,5.72
2023-05-10T15:26:58.876Z,5.50
2023-05-10T15:29:26.048Z,5.70
2023-05-10T15:31:53.602Z,6.00
2023-05-10T15:34:21.069Z,5.80
2023-05-10T15:36:48.285Z,5.78
2023-05-10T15:39:15.480Z,5.85
2023-05-10T15:41:42.655Z,6.10
2023-05-10T15:44:09.786Z,5.43
2023-05-10T15:46:38.785Z,5.35
2023-05-10T15:49:06.729Z,5.13
2023-05-10T15:51:35.909Z,6.10
2023-05-10T15:54:07.517Z,5.13
2023-05-10T15:56:35.872Z,5.05
2023-05-10T15:59:03.726Z,5.25
2023-05-10T16:01:32.522Z,5.25
2023-05-10T16:04:00.932Z,5.18
2023-05-10T16:06:28.260Z,4.97
2023-05-10T16:08:55.433Z,4.70
2023-05-10T16:11:22.719Z,4.28
2023-05-10T16:13:50.016Z,5.03
2023-05-10T16:16:17.305Z,5.03
2023-05-10T16:18:44.652Z,4.60
2023-05-10T16:21:11.950Z,5.28
2023-05-10T16:23:39.697Z,5.70
2023-05-10T16:26:07.510Z,5.90
2023-05-10T16:28:35.158Z,7.03
2023-05-10T16:31:02.389Z,6.03
2023-05-10T16:33:29.629Z,7.07
2023-05-10T16:35:56.886Z,7.38
2023-05-10T16:38:24.034Z,6.72
2023-05-10T16:40:51.181Z,6.63
2023-05-10T16:43:19.200Z,6.72
2023-05-10T16:45:46.338Z,6.90
2023-05-10T16:48:13.478Z,7.80
2023-05-10T16:50:44.412Z,7.32
2023-05-10T16:53:11.749Z,9.00
2023-05-10T16:55:39.009Z,8.52
2023-05-10T16:58:06.235Z,8.88
2023-05-10T17:00:33.829Z,8.70
2023-05-10T17:03:01.236Z,8.77
2023-05-10T17:05:29.418Z,10.18
2023-05-10T17:07:56.587Z,10.10
2023-05-10T17:10:23.777Z,9.95
2023-05-10T17:12:51.325Z,10.65
2023-05-10T17:15:19.462Z,9.52
2023-05-10T17:17:47.718Z,10.00
2023-05-10T17:20:14.946Z,9.98
2023-05-10T17:22:42.114Z,10.63
2023-05-10T17:25:09.607Z,11.15
2023-05-10T17:27:37.010Z,10.65
2023-05-10T17:30:04.857Z,10.32
2023-05-10T17:32:32.172Z,10.80
2023-05-10T17:34:59.418Z,10.88
2023-05-10T17:37:26.577Z,12.77
2023-05-10T17:39:53.751Z,11.90
2023-05-10T17:42:21.079Z,12.38
2023-05-10T17:44:48.236Z,10.82
2023-05-10T17:47:15.510Z,11.75
2023-05-10T17:49:42.702Z,13.25
2023-05-10T17:52:09.919Z,14.20
2023-05-10T17:54:37.080Z,14.95
2023-05-10T17:57:04.280Z,15.30
2023-05-10T17:59:31.458Z,18.25
2023-05-10T18:01:58.635Z,18.88
2023-05-10T18:04:26.122Z,52.10
2023-05-10T18:07:00.947Z,43.90
2023-05-10T18:09:28.713Z,18.58
2023-05-10T18:11:55.908Z,13.82
2023-05-10T18:14:38.997Z,17.05
2023-05-10T18:17:07.835Z,11.05
2023-05-10T18:19:35.339Z,11.63
2023-05-10T18:22:02.719Z,17.17
2023-05-10T18:24:40.215Z,11.43
2023-05-10T18:27:10.572Z,11.35
2023-05-10T18:29:37.864Z,10.77
2023-05-10T18:32:05.481Z,33.25
2023-05-10T18:34:32.678Z,18.42
2023-05-10T18:37:00.052Z,16.45
2023-05-10T18:39:27.326Z,13.13
2023-05-10T18:41:54.568Z,11.70
2023-05-10T18:44:23.209Z,12.57
2023-05-10T18:46:54.050Z,13.27
2023-05-10T18:49:21.365Z,13.60
2023-05-10T18:51:48.513Z,12.98
2023-05-10T18:54:15.747Z,18.50
2023-05-10T18:56:45.095Z,21.95
2023-05-10T18:59:12.871Z,19.73
2023-05-10T19:01:43.334Z,20.27
2023-05-10T19:04:10.645Z,17.85
2023-05-10T19:06:37.925Z,16.23
2023-05-10T19:09:05.101Z,14.45
2023-05-10T19:11:34.258Z,13.98
2023-05-10T19:14:02.327Z,17.45
2023-05-10T19:16:30.423Z,15.95
2023-05-10T19:18:57.856Z,16.10
2023-05-10T19:21:25.283Z,17.27
2023-05-10T19:23:53.645Z,18.13
2023-05-10T19:26:21.738Z,16.90
2023-05-10T19:28:52.051Z,16.80
2023-05-10T19:31:21.282Z,15.48
2023-05-10T19:33:49.101Z,15.48
2023-05-10T19:36:16.529Z,16.50
2023-05-10T19:38:43.707Z,19.48
2023-05-10T19:41:11.601Z,16.73
2023-05-10T19:43:39.600Z,15.32
2023-05-10T19:46:06.958Z,15.20
2023-05-10T19:48:34.155Z,15.10
2023-05-10T19:51:03.757Z,14.75
2023-05-10T19:53:32.371Z,13.90
2023-05-10T19:56:05.211Z,14.95
2023-05-10T19:58:33.871Z,13.68
2023-05-10T20:01:01.598Z,15.27
2023-05-10T20:03:29.208Z,13.95
2023-05-10T20:05:56.459Z,14.88
2023-05-10T20:08:24.417Z,14.15
2023-05-10T20:10:51.572Z,14.27
2023-05-10T20:13:18.692Z,16.38
2023-05-10T20:15:46.571Z,31.60
2023-05-10T20:18:13.808Z,23.83
2023-05-10T20:20:41.105Z,16.45
2023-05-10T20:23:08.304Z,16.67
2023-05-10T20:25:35.562Z,16.65
2023-05-10T20:28:03.667Z,17.20
2023-05-10T20:30:30.937Z,17.40
2023-05-10T20:32:58.257Z,16.02
2023-05-10T20:35:25.550Z,16.98
2023-05-10T20:37:52.779Z,16.20
2023-05-10T20:40:20.289Z,16.25
2023-05-10T20:42:47.757Z,17.20
2023-05-10T20:45:15.717Z,15.02
2023-05-10T20:47:43.006Z,13.57
2023-05-10T20:50:11.623Z,19.25
2023-05-10T20:52:38.847Z,15.88
2023-05-10T20:55:06.777Z,14.43
2023-05-10T20:57:33.977Z,15.00
2023-05-10T21:00:01.148Z,13.80
2023-05-10T21:02:28.374Z,16.20
2023-05-10T21:04:57.752Z,15.75
2023-05-10T21:07:25.428Z,17.67
2023-05-10T21:09:52.583Z,18.63
2023-05-10T21:12:19.833Z,18.02
2023-05-10T21:14:47.733Z,16.88
2023-05-10T21:17:14.904Z,17.45
2023-05-10T21:19:43.874Z,17.30
2023-05-10T21:22:11.090Z,16.67
2023-05-10T21:24:38.478Z,17.73
2023-05-10T21:27:07.732Z,15.85
2023-05-10T21:29:34.983Z,17.45
2023-05-10T21:32:02.493Z,19.70
2023-05-10T21:34:30.113Z,21.38
2023-05-10T21:36:57.295Z,20.60
2023-05-10T21:39:24.471Z,21.25
2023-05-10T21:41:51.681Z,19.88
2023-05-10T21:44:18.920Z,20.27
2023-05-10T21:46:46.070Z,18.55
2023-05-10T21:49:13.222Z,19.48
2023-05-10T21:51:40.373Z,19.92
2023-05-10T21:54:07.676Z,19.30
2023-05-10T21:56:34.845Z,18.77
2023-05-10T21:59:02.012Z,18.48
2023-05-10T22:01:29.161Z,18.35
2023-05-10T22:03:56.419Z,18.55
2023-05-10T22:06:24.123Z,19.02
2023-05-10T22:08:51.310Z,19.65
2023-05-10T22:11:18.501Z,19.50
2023-05-10T22:13:45.664Z,19.08
2023-05-10T22:16:13.031Z,21.02
2023-05-10T22:18:40.313Z,20.55
2023-05-10T22:21:10.279Z,21.73
2023-05-10T22:23:37.502Z,20.02
2023-05-10T22:26:04.764Z,21.05
2023-05-10T22:28:31.924Z,20.92
2023-05-10T22:30:59.213Z,20.13
2023-05-10T22:33:26.370Z,20.92
2023-05-10T22:35:53.589Z,20.13
2023-05-10T22:38:20.738Z,20.85
2023-05-10T22:40:47.952Z,22.40
2023-05-10T22:43:16.920Z,23.70
2023-05-10T22:45:44.128Z,24.50
2023-05-10T22:48:11.325Z,25.70
2023-05-10T22:50:38.551Z,26.92
2023-05-10T22:53:06.645Z,27.30
2023-05-10T22:55:33.974Z,26.67
2023-05-10T22:58:01.410Z,26.52
2023-05-10T23:00:28.556Z,26.13
2023-05-10T23:02:55.856Z,26.25
2023-05-10T23:05:23.048Z,27.00
2023-05-10T23:07:53.210Z,27.10
2023-05-10T23:10:20.636Z,29.65
2023-05-10T23:12:48.088Z,27.05
2023-05-10T23:15:15.359Z,27.05
2023-05-10T23:17:42.622Z,26.33
2023-05-10T23:20:10.847Z,26.45
2023-05-10T23:22:38.115Z,26.45
2023-05-10T23:25:05.962Z,24.75
2023-05-10T23:27:33.257Z,25.25
2023-05-10T23:30:00.588Z,24.40
2023-05-10T23:32:27.780Z,24.15
2023-05-10T23:34:55.487Z,25.58
2023-05-10T23:37:22.636Z,24.50
2023-05-10T23:39:49.785Z,24.80
2023-05-10T23:42:16.944Z,24.90
2023-05-10T23:44:44.107Z,24.00
2023-05-10T23:47:11.301Z,24.17
2023-05-10T23:49:38.466Z,23.40
2023-05-10T23:52:05.656Z,22.90
2023-05-10T23:54:32.865Z,23.13
2023-05-10T23:57:00.041Z,24.20
2023-05-10T23:59:27.330Z,23.52
